createdAt,value
2022-11-16T11:18:20.359Z,3.73
2022-11-16T11:23:20.264Z,3.90
2022-11-16T12:04:24.099Z,4.10
2022-11-16T12:31:29.590Z,4.40
2022-11-16T12:47:33.939Z,4.13
2022-11-16T13:08:46.450Z,2.90
2022-11-16T13:52:22.750Z,2.28
2022-11-16T14:58:39.428Z,2.10
2022-11-16T15:13:51.751Z,3.23
2022-11-16T15:51:53.371Z,2.00
2022-11-16T16:09:28.613Z,2.20
2022-11-16T16:16:57.794Z,2.37
2022-11-16T16:19:31.768Z,2.53
2022-11-16T16:37:14.793Z,2.35
2022-11-16T16:39:43.563Z,2.40
2022-11-16T16:44:40.522Z,2.38
2022-11-16T16:47:07.936Z,2.35
2022-11-16T16:54:31.002Z,2.40
2022-11-16T17:29:16.383Z,2.75
2022-11-16T17:31:47.123Z,2.70
2022-11-16T17:41:38.091Z,2.33
2022-11-16T18:06:24.940Z,2.47
2022-11-16T18:08:52.639Z,2.90
2022-11-16T18:16:21.559Z,2.08
2022-11-16T19:03:47.411Z,2.55
2022-11-16T19:06:17.066Z,2.53
2022-11-16T19:16:13.568Z,3.00
2022-11-16T19:26:08.763Z,3.53
2022-11-16T19:28:37.822Z,3.90
2022-11-16T19:33:37.250Z,3.92
2022-11-16T19:38:37.299Z,3.70
2022-11-16T19:53:34.331Z,3.50
2022-11-16T20:18:38.282Z,3.50
2022-11-16T20:21:06.538Z,3.80
2022-11-16T20:23:35.259Z,3.30
2022-11-16T20:26:04.728Z,3.33
2022-11-16T20:28:34.318Z,3.90
2022-11-16T20:31:04.973Z,2.85
2022-11-16T20:33:34.879Z,3.30
2022-11-16T20:36:02.789Z,3.45
2022-11-16T20:45:54.001Z,3.08
2022-11-16T20:48:21.441Z,3.05
2022-11-16T20:50:53.843Z,2.77
2022-11-16T20:53:22.190Z,2.83
2022-11-16T20:55:50.174Z,2.80
2022-11-16T20:58:22.564Z,2.90
2022-11-16T21:00:50.980Z,3.00
2022-11-16T21:08:19.707Z,3.15
2022-11-16T21:10:48.236Z,3.40
2022-11-16T21:13:34.198Z,2.92
2022-11-16T21:16:02.914Z,2.80
2022-11-16T21:18:31.069Z,3.00
2022-11-16T21:20:59.598Z,3.10
2022-11-16T21:23:28.668Z,2.72
2022-11-16T21:25:56.129Z,2.65
2022-11-16T21:28:25.613Z,2.80
2022-11-16T21:30:56.774Z,2.83
2022-11-16T21:33:24.260Z,3.00
2022-11-16T21:35:52.614Z,2.70
2022-11-16T21:38:20.634Z,3.13
2022-11-16T21:40:49.912Z,2.90
2022-11-16T21:43:17.668Z,3.00
2022-11-16T21:45:45.573Z,3.00
2022-11-16T21:48:13.202Z,2.63
2022-11-16T21:50:41.059Z,2.50
2022-11-16T21:53:09.971Z,2.90
2022-11-16T21:55:37.427Z,3.17
2022-11-16T21:58:06.184Z,2.70
2022-11-16T22:00:33.604Z,3.03
2022-11-16T22:03:01.296Z,3.35
2022-11-16T22:05:46.395Z,2.83
2022-11-16T22:08:13.810Z,3.00
2022-11-16T22:10:41.209Z,2.90
2022-11-16T22:13:09.990Z,3.15
2022-11-16T22:15:37.372Z,2.83
2022-11-16T22:18:04.955Z,3.10
2022-11-16T22:20:32.350Z,3.03
2022-11-16T22:22:59.733Z,2.83
2022-11-16T22:25:27.272Z,3.00
2022-11-16T22:30:45.119Z,3.10
2022-11-16T22:33:16.110Z,3.00
2022-11-16T22:35:43.476Z,3.00
2022-11-16T22:43:06.116Z,2.77
2022-11-16T22:48:02.426Z,3.15
2022-11-16T22:50:29.957Z,2.85
2022-11-16T22:52:59.041Z,3.20
2022-11-16T22:55:26.454Z,2.73
2022-11-16T22:57:53.847Z,2.50
2022-11-16T23:02:49.502Z,2.75
2022-11-16T23:05:18.407Z,3.05
2022-11-16T23:07:45.795Z,3.00
2022-11-16T23:10:13.186Z,2.60
2022-11-16T23:12:57.911Z,2.90
2022-11-16T23:15:42.615Z,2.70
2022-11-16T23:18:09.955Z,2.45
2022-11-16T23:21:01.382Z,3.13
2022-11-16T23:26:33.323Z,2.70
2022-11-16T23:29:01.475Z,3.00
2022-11-16T23:31:29.875Z,2.72
2022-11-16T23:33:57.244Z,2.93
2022-11-16T23:36:26.002Z,2.92
2022-11-16T23:38:53.385Z,3.42
2022-11-16T23:41:38.448Z,2.83
2022-11-16T23:44:05.824Z,2.92
2022-11-16T23:46:33.827Z,2.70
2022-11-16T23:49:02.052Z,2.90
2022-11-16T23:51:30.778Z,2.63
2022-11-16T23:53:58.189Z,2.95
2022-11-16T23:56:25.566Z,2.47
2022-11-16T23:58:56.212Z,2.47
